Time;durP1;ratioP1;P1;durP2;ratioP2;P2;SDS_P1;SDS_P2;PMS_P1;PMS_P2;Temp;Humidity;BMP_temperature;BMP_pressure;BME280_temperature;BME280_humidity;BME280_pressure;Samples;Min_cycle;Max_cycle;Signal;HPM_P1;HPM_P2
2023/12/02 00:00:23;;;;;;;4.87;3.17;;;0.30;99.90;;;;;;2048697;28;20289;-69
2023/12/02 00:01:23;;;;;;;5.57;4.00;;;0.30;99.90;;;;;;2047875;28;20307;-69
2023/12/02 00:02:24;;;;;;;3.03;2.23;;;0.20;99.90;;;;;;2048240;28;20275;-69
2023/12/02 00:03:25;;;;;;;3.70;2.80;;;0.20;99.90;;;;;;2048570;28;20609;-69
2023/12/02 00:04:25;;;;;;;3.83;2.77;;;0.20;99.90;;;;;;2046678;28;20212;-69
2023/12/02 00:05:26;;;;;;;4.37;2.63;;;0.30;99.90;;;;;;2046876;28;20220;-69
2023/12/02 00:06:27;;;;;;;3.77;3.07;;;0.30;99.90;;;;;;2048907;28;20257;-69
2023/12/02 00:07:27;;;;;;;4.73;3.23;;;0.30;99.90;;;;;;2048946;28;20693;-69
2023/12/02 00:08:28;;;;;;;3.90;2.87;;;0.30;99.90;;;;;;2047869;28;20245;-69
2023/12/02 00:09:29;;;;;;;3.70;2.85;;;0.30;99.90;;;;;;2045949;28;20231;-69
2023/12/02 00:10:30;;;;;;;2.30;1.90;;;0.40;99.90;;;;;;2048836;28;20212;-69
2023/12/02 00:11:30;;;;;;;4.63;3.23;;;0.40;99.90;;;;;;2048901;28;20222;-69
2023/12/02 00:12:31;;;;;;;3.93;2.83;;;0.50;99.90;;;;;;2046126;28;20300;-69
2023/12/02 00:13:32;;;;;;;4.07;2.80;;;0.50;99.90;;;;;;2044968;28;20225;-69
2023/12/02 00:14:33;;;;;;;5.97;3.57;;;0.40;99.90;;;;;;2056356;28;20613;-69
2023/12/02 00:15:33;;;;;;;5.00;3.08;;;0.40;99.90;;;;;;2051414;28;20713;-69
2023/12/02 00:16:34;;;;;;;4.30;2.97;;;0.30;99.90;;;;;;2045290;28;20232;-69
2023/12/02 00:17:35;;;;;;;3.27;2.20;;;0.30;99.90;;;;;;2048644;28;20782;-69
2023/12/02 00:18:35;;;;;;;4.47;3.40;;;0.20;99.90;;;;;;2048414;28;20249;-69
2023/12/02 00:19:36;;;;;;;3.30;2.50;;;0.10;99.90;;;;;;2044922;28;20279;-69
2023/12/02 00:20:37;;;;;;;4.07;3.05;;;0.10;99.90;;;;;;2048699;28;20309;-68
2023/12/02 00:21:38;;;;;;;3.70;3.10;;;0.20;99.90;;;;;;2048695;28;20228;-69
2023/12/02 00:22:39;;;;;;;3.40;2.20;;;0.10;99.90;;;;;;2046644;28;20220;-69
2023/12/02 00:23:39;;;;;;;4.03;2.67;;;0.00;99.90;;;;;;2045018;28;20295;-69
2023/12/02 00:24:40;;;;;;;5.17;3.63;;;0.00;99.90;;;;;;2049019;28;20759;-69
2023/12/02 00:25:41;;;;;;;5.20;2.70;;;-0.10;99.90;;;;;;2035760;28;20222;-68
2023/12/02 00:26:42;;;;;;;4.57;3.10;;;-0.10;99.90;;;;;;2043518;28;20227;-68
2023/12/02 00:27:42;;;;;;;3.83;2.30;;;-0.20;99.90;;;;;;2039471;28;20607;-68
2023/12/02 00:28:43;;;;;;;4.43;2.77;;;-0.20;99.90;;;;;;2035014;28;20828;-69
2023/12/02 00:29:44;;;;;;;3.17;2.23;;;-0.20;99.90;;;;;;2047107;28;20235;-68
2023/12/02 00:30:44;;;;;;;3.23;2.30;;;-0.20;99.90;;;;;;2045008;28;20228;-68
2023/12/02 00:31:45;;;;;;;3.83;2.63;;;-0.20;99.90;;;;;;2047595;28;20606;-68
2023/12/02 00:32:46;;;;;;;4.90;3.00;;;-0.10;99.90;;;;;;2048479;28;20215;-68
2023/12/02 00:33:47;;;;;;;5.57;3.30;;;-0.10;99.90;;;;;;2048105;28;20319;-69
2023/12/02 00:34:48;;;;;;;5.90;3.00;;;0.00;99.90;;;;;;2056599;28;20218;-71
2023/12/02 00:35:48;;;;;;;4.97;3.57;;;0.00;99.90;;;;;;2055998;28;20184;-70
2023/12/02 00:36:49;;;;;;;4.63;2.80;;;0.00;99.90;;;;;;2054952;28;20208;-68
2023/12/02 00:37:50;;;;;;;3.77;2.87;;;0.10;99.90;;;;;;2049644;28;20192;-69
2023/12/02 00:38:51;;;;;;;4.50;3.07;;;0.20;99.90;;;;;;2047866;28;20631;-68
2023/12/02 00:39:52;;;;;;;3.88;2.60;;;0.20;99.90;;;;;;2036428;28;20697;-69
2023/12/02 00:40:52;;;;;;;4.77;3.13;;;0.20;99.90;;;;;;2043696;28;20212;-69
2023/12/02 00:41:53;;;;;;;4.30;2.97;;;0.20;99.90;;;;;;2098922;28;20202;-69
2023/12/02 00:42:54;;;;;;;3.03;2.30;;;0.20;99.90;;;;;;2095798;28;20224;-68
2023/12/02 00:43:55;;;;;;;4.90;3.05;;;0.10;99.90;;;;;;2047917;28;20227;-68
2023/12/02 00:44:55;;;;;;;3.40;2.70;;;0.10;99.90;;;;;;2049854;28;20179;-68
2023/12/02 00:45:56;;;;;;;3.87;2.20;;;0.20;99.90;;;;;;2079317;28;20179;-68
2023/12/02 00:46:57;;;;;;;4.73;3.30;;;0.20;99.90;;;;;;2058354;28;20184;-68
2023/12/02 00:47:57;;;;;;;4.53;3.10;;;0.20;99.90;;;;;;2049891;28;20259;-69
2023/12/02 00:48:58;;;;;;;6.47;4.20;;;0.20;99.90;;;;;;2046535;28;20234;-69
2023/12/02 00:49:59;;;;;;;3.73;3.00;;;0.20;99.90;;;;;;2045910;28;20282;-68
2023/12/02 00:50:59;;;;;;;4.27;3.20;;;0.20;99.90;;;;;;2040248;28;20204;-68
2023/12/02 00:52:01;;;;;;;4.50;2.73;;;0.20;99.90;;;;;;2042547;28;20678;-68
2023/12/02 00:53:01;;;;;;;5.00;3.33;;;0.10;99.90;;;;;;2047037;28;20437;-68
2023/12/02 00:54:02;;;;;;;3.70;2.40;;;0.10;99.90;;;;;;2040781;28;20224;-68
2023/12/02 00:55:03;;;;;;;3.93;2.60;;;0.20;99.90;;;;;;2056651;28;20237;-68
2023/12/02 00:56:05;;;;;;;4.50;3.05;;;0.20;99.90;;;;;;2045657;28;20196;-68
2023/12/02 00:57:05;;;;;;;3.83;3.10;;;0.30;99.90;;;;;;2037977;28;20734;-69
2023/12/02 00:58:06;;;;;;;4.50;2.60;;;0.30;99.90;;;;;;2039830;28;20187;-69
2023/12/02 00:59:07;;;;;;;5.10;3.30;;;0.20;99.90;;;;;;2047346;28;20678;-69
2023/12/02 01:00:08;;;;;;;4.80;3.47;;;0.20;99.90;;;;;;2061840;28;20240;-68
2023/12/02 01:01:09;;;;;;;4.60;3.22;;;0.20;99.90;;;;;;2049977;28;20717;-68
2023/12/02 01:02:10;;;;;;;4.63;2.97;;;0.20;99.90;;;;;;2053955;28;20248;-68
2023/12/02 01:03:11;;;;;;;4.85;3.05;;;0.30;99.90;;;;;;2036107;28;20476;-69
2023/12/02 01:04:12;;;;;;;7.17;3.83;;;0.30;99.90;;;;;;2047412;28;20673;-68
2023/12/02 01:05:13;;;;;;;5.27;3.13;;;0.20;99.90;;;;;;2062522;28;20323;-69
2023/12/02 01:06:14;;;;;;;4.80;3.53;;;0.20;99.90;;;;;;2046850;28;20750;-68
2023/12/02 01:07:15;;;;;;;5.67;3.53;;;0.20;99.90;;;;;;2037890;28;20256;-69
2023/12/02 01:08:16;;;;;;;3.90;2.80;;;0.20;99.90;;;;;;2031926;29;20244;-68
2023/12/02 01:09:16;;;;;;;4.80;3.58;;;0.10;99.90;;;;;;2062120;28;20221;-68
2023/12/02 01:10:17;;;;;;;4.40;3.20;;;0.10;99.90;;;;;;2038536;28;20230;-68
2023/12/02 01:11:18;;;;;;;6.03;3.30;;;0.10;99.90;;;;;;2032822;28;20790;-68
2023/12/02 01:12:19;;;;;;;5.30;3.80;;;0.10;99.90;;;;;;2040547;29;20236;-68
2023/12/02 01:13:19;;;;;;;6.87;3.33;;;0.10;99.90;;;;;;2040929;28;20275;-69
2023/12/02 01:14:20;;;;;;;4.67;3.23;;;0.20;99.90;;;;;;2034925;28;20260;-69
2023/12/02 01:15:21;;;;;;;5.03;3.70;;;0.20;99.90;;;;;;2038166;28;20591;-69
2023/12/02 01:16:21;;;;;;;5.57;3.43;;;0.20;99.90;;;;;;2026804;28;20230;-69
2023/12/02 01:17:22;;;;;;;3.70;2.63;;;0.20;99.90;;;;;;2037819;29;20662;-68
2023/12/02 01:18:23;;;;;;;5.37;3.60;;;0.20;99.90;;;;;;2045235;28;20232;-68
2023/12/02 01:19:24;;;;;;;5.60;3.80;;;0.20;99.90;;;;;;2035730;28;20613;-68
2023/12/02 01:20:24;;;;;;;5.37;4.13;;;0.20;99.90;;;;;;2068796;28;20268;-69
2023/12/02 01:21:25;;;;;;;5.97;3.67;;;0.20;99.90;;;;;;2048845;28;20674;-68
2023/12/02 01:22:26;;;;;;;4.13;2.73;;;0.20;99.90;;;;;;2042436;28;20224;-69
2023/12/02 01:23:26;;;;;;;4.00;2.70;;;0.10;99.90;;;;;;2040212;28;20225;-68
2023/12/02 01:24:28;;;;;;;5.63;3.83;;;0.00;99.90;;;;;;2034095;28;20221;-68
2023/12/02 01:25:28;;;;;;;6.13;3.93;;;0.00;99.90;;;;;;2035891;28;20226;-69
2023/12/02 01:26:29;;;;;;;5.30;3.43;;;0.00;99.90;;;;;;2045025;28;20737;-68
2023/12/02 01:27:30;;;;;;;5.20;3.77;;;-0.10;99.90;;;;;;2034507;28;20311;-69
2023/12/02 01:28:30;;;;;;;5.20;3.80;;;-0.10;99.90;;;;;;2044204;28;20229;-68
2023/12/02 01:29:31;;;;;;;5.83;3.93;;;-0.10;99.90;;;;;;2043285;28;20229;-69
2023/12/02 01:30:32;;;;;;;5.60;3.43;;;0.00;99.90;;;;;;2040981;28;20225;-68
2023/12/02 01:31:32;;;;;;;3.67;2.63;;;-0.10;99.90;;;;;;2041980;28;20445;-69
2023/12/02 01:32:33;;;;;;;6.23;3.80;;;0.00;99.90;;;;;;2044471;28;20301;-69
2023/12/02 01:33:34;;;;;;;6.57;3.87;;;0.10;99.90;;;;;;2036568;29;20225;-68
2023/12/02 01:34:35;;;;;;;4.90;3.37;;;0.10;99.90;;;;;;2037301;28;20230;-68
2023/12/02 01:35:35;;;;;;;5.22;3.83;;;0.10;99.90;;;;;;2037122;28;20299;-69
2023/12/02 01:36:36;;;;;;;5.00;3.07;;;0.10;99.90;;;;;;2038617;29;20598;-68
2023/12/02 01:37:37;;;;;;;6.03;4.30;;;0.20;99.90;;;;;;2038385;28;20312;-69
2023/12/02 01:38:38;;;;;;;5.68;3.33;;;0.20;99.90;;;;;;2041015;28;20991;-68
2023/12/02 01:39:38;;;;;;;4.43;2.93;;;0.20;99.90;;;;;;2058660;28;20262;-69
2023/12/02 01:40:39;;;;;;;5.90;3.53;;;0.10;99.90;;;;;;2055780;28;20237;-68
2023/12/02 01:41:40;;;;;;;6.17;3.77;;;0.10;99.90;;;;;;2057124;28;20284;-68
2023/12/02 01:42:41;;;;;;;4.23;3.40;;;0.20;99.90;;;;;;2052624;28;20644;-68
2023/12/02 01:43:41;;;;;;;6.27;4.00;;;0.20;99.90;;;;;;2037583;28;20229;-68
2023/12/02 01:44:42;;;;;;;4.23;2.80;;;0.20;99.90;;;;;;2044426;28;20320;-68
2023/12/02 01:45:43;;;;;;;5.67;3.70;;;0.30;99.90;;;;;;2054381;28;20289;-69
2023/12/02 01:46:43;;;;;;;7.57;4.17;;;0.30;99.90;;;;;;2038323;28;20233;-68
2023/12/02 01:47:45;;;;;;;5.77;3.57;;;0.20;99.90;;;;;;2043607;28;20241;-68
2023/12/02 01:48:46;;;;;;;6.88;3.67;;;0.20;99.90;;;;;;2041994;28;20224;-68
2023/12/02 01:49:48;;;;;;;5.60;3.53;;;0.10;99.90;;;;;;2042921;28;20232;-68
2023/12/02 01:50:49;;;;;;;5.60;4.05;;;0.10;99.90;;;;;;2041922;28;20250;-68
2023/12/02 01:51:50;;;;;;;7.13;3.90;;;0.20;99.90;;;;;;2041089;28;20642;-67
2023/12/02 01:52:51;;;;;;;6.05;4.00;;;0.10;99.90;;;;;;2047620;28;20284;-67
2023/12/02 01:53:52;;;;;;;5.27;3.03;;;0.00;99.90;;;;;;2044744;28;20297;-69
2023/12/02 01:54:52;;;;;;;5.67;3.50;;;0.10;99.90;;;;;;2034630;29;20670;-67
2023/12/02 01:55:53;;;;;;;6.70;3.97;;;0.10;99.90;;;;;;2039462;28;20190;-67
2023/12/02 01:56:54;;;;;;;7.30;4.70;;;0.00;99.90;;;;;;2032218;29;20240;-67
2023/12/02 01:57:55;;;;;;;6.10;3.83;;;0.00;99.90;;;;;;2049719;28;20179;-67
2023/12/02 01:58:57;;;;;;;6.77;4.13;;;0.00;99.90;;;;;;2042740;28;20184;-67
2023/12/02 01:59:57;;;;;;;5.70;3.42;;;-0.10;99.90;;;;;;2041030;28;20188;-67
2023/12/02 02:00:58;;;;;;;6.10;3.63;;;-0.10;99.90;;;;;;2047617;28;20204;-67
2023/12/02 02:01:59;;;;;;;6.67;4.23;;;-0.10;99.90;;;;;;2056216;28;20298;-67
2023/12/02 02:02:59;;;;;;;7.87;4.30;;;-0.10;99.90;;;;;;2037606;28;20279;-68
2023/12/02 02:04:00;;;;;;;5.60;3.60;;;-0.10;99.90;;;;;;2040973;29;20271;-67
2023/12/02 02:05:01;;;;;;;5.33;3.10;;;0.00;99.90;;;;;;2041090;28;20682;-67
2023/12/02 02:06:03;;;;;;;6.65;4.20;;;0.00;99.90;;;;;;2040626;28;20187;-67
2023/12/02 02:07:04;;;;;;;6.63;4.25;;;0.00;99.90;;;;;;2046494;28;20191;-67
2023/12/02 02:08:04;;;;;;;6.43;4.00;;;-0.10;99.90;;;;;;2045604;28;20236;-67
2023/12/02 02:09:05;;;;;;;8.23;4.20;;;-0.10;99.90;;;;;;2041716;28;20441;-67
2023/12/02 02:10:06;;;;;;;5.90;3.97;;;-0.10;99.90;;;;;;2039456;28;20188;-66
2023/12/02 02:11:07;;;;;;;7.32;4.25;;;-0.20;99.90;;;;;;2040423;28;20595;-67
2023/12/02 02:12:08;;;;;;;7.83;3.97;;;-0.20;99.90;;;;;;2040282;28;20322;-67
2023/12/02 02:13:09;;;;;;;6.97;3.90;;;-0.20;99.90;;;;;;2037042;28;20766;-67
2023/12/02 02:14:09;;;;;;;5.77;4.03;;;-0.20;99.90;;;;;;2032329;28;20240;-67
2023/12/02 02:15:11;;;;;;;5.60;3.40;;;-0.10;99.90;;;;;;2040784;28;20236;-69
2023/12/02 02:16:12;;;;;;;7.53;4.53;;;-0.10;99.90;;;;;;2048447;28;20705;-68
2023/12/02 02:17:13;;;;;;;6.47;3.67;;;-0.10;99.90;;;;;;2039586;28;20307;-66
2023/12/02 02:18:14;;;;;;;4.63;3.80;;;-0.10;99.90;;;;;;2054365;28;20287;-66
2023/12/02 02:19:17;;;;;;;7.43;3.97;;;-0.10;99.90;;;;;;2050748;28;20314;-66
2023/12/02 02:20:18;;;;;;;6.03;3.83;;;-0.20;99.90;;;;;;2040874;28;20315;-67
2023/12/02 02:21:22;;;;;;;7.07;4.90;;;-0.20;99.90;;;;;;2041085;28;20288;-67
2023/12/02 02:22:23;;;;;;;8.25;5.03;;;-0.30;99.90;;;;;;2033596;28;20232;-67
2023/12/02 02:23:24;;;;;;;4.53;3.27;;;-0.30;99.90;;;;;;2042238;28;20250;-67
2023/12/02 02:24:24;;;;;;;5.30;3.20;;;-0.40;99.90;;;;;;2041171;28;20554;-67
2023/12/02 02:25:25;;;;;;;6.37;4.17;;;-0.30;99.90;;;;;;2045808;28;20304;-67
2023/12/02 02:26:26;;;;;;;10.10;6.03;;;-0.30;99.90;;;;;;2041840;28;20764;-67
2023/12/02 02:27:26;;;;;;;8.70;5.47;;;-0.50;99.90;;;;;;2037286;28;20224;-67
2023/12/02 02:28:28;;;;;;;7.80;5.27;;;-0.50;99.90;;;;;;2041283;28;20224;-67
2023/12/02 02:29:29;;;;;;;7.00;4.95;;;-0.50;99.90;;;;;;2041354;28;20294;-67
2023/12/02 02:30:30;;;;;;;8.30;5.10;;;-0.40;99.90;;;;;;2041518;28;20271;-67
2023/12/02 02:31:31;;;;;;;7.18;4.68;;;-0.50;99.90;;;;;;2041763;28;20228;-67
2023/12/02 02:32:31;;;;;;;5.73;4.30;;;-0.50;99.90;;;;;;2043189;28;20224;-67
2023/12/02 02:33:32;;;;;;;8.30;4.83;;;-0.50;99.90;;;;;;2038486;28;20229;-67
2023/12/02 02:34:33;;;;;;;8.07;4.33;;;-0.50;99.90;;;;;;2035853;28;20287;-67
2023/12/02 02:35:34;;;;;;;8.60;5.27;;;-0.40;99.90;;;;;;2043104;28;20275;-67
2023/12/02 02:36:34;;;;;;;6.97;3.90;;;-0.40;99.90;;;;;;2047595;28;20234;-67
2023/12/02 02:37:35;;;;;;;6.67;4.97;;;-0.40;99.90;;;;;;2051074;28;20223;-67
2023/12/02 02:38:36;;;;;;;6.77;4.40;;;-0.40;99.90;;;;;;2052584;28;20222;-67
2023/12/02 02:39:36;;;;;;;7.63;4.30;;;-0.40;99.90;;;;;;2042732;28;20301;-67
2023/12/02 02:40:37;;;;;;;9.73;5.80;;;-0.50;99.90;;;;;;2026012;28;20225;-67
2023/12/02 02:41:38;;;;;;;8.07;5.45;;;-0.50;99.90;;;;;;2030483;28;20229;-67
2023/12/02 02:42:39;;;;;;;6.63;4.57;;;-0.40;99.90;;;;;;2037467;28;20229;-67
2023/12/02 02:43:40;;;;;;;6.70;4.03;;;-0.40;99.90;;;;;;2037211;29;20308;-67
2023/12/02 02:44:41;;;;;;;9.27;5.83;;;-0.40;99.90;;;;;;2048325;28;20219;-67
2023/12/02 02:45:41;;;;;;;7.67;4.53;;;-0.40;99.90;;;;;;2041188;28;20277;-67
2023/12/02 02:46:42;;;;;;;5.30;4.20;;;-0.40;99.90;;;;;;2033495;28;20307;-67
2023/12/02 02:47:43;;;;;;;8.30;5.47;;;-0.50;99.90;;;;;;2041101;29;20224;-67
2023/12/02 02:48:43;;;;;;;10.43;4.57;;;-0.40;99.90;;;;;;2037762;28;20323;-67
2023/12/02 02:49:44;;;;;;;10.13;5.10;;;-0.40;99.90;;;;;;2041697;28;20834;-67
2023/12/02 02:50:45;;;;;;;7.60;5.03;;;-0.40;99.90;;;;;;2041345;28;20294;-67
2023/12/02 02:51:45;;;;;;;7.40;4.77;;;-0.40;99.90;;;;;;2041367;28;20227;-67
2023/12/02 02:52:47;;;;;;;11.07;5.60;;;-0.40;99.90;;;;;;2042731;28;20679;-67
2023/12/02 02:53:48;;;;;;;7.32;5.07;;;-0.30;99.90;;;;;;2046364;28;20244;-68
2023/12/02 02:54:48;;;;;;;12.60;5.80;;;-0.30;99.90;;;;;;2042157;29;20234;-68
2023/12/02 02:55:49;;;;;;;9.40;5.70;;;-0.30;99.90;;;;;;2031114;29;20365;-66
2023/12/02 02:56:51;;;;;;;10.97;5.53;;;-0.40;99.90;;;;;;2024215;29;20217;-65
2023/12/02 02:57:52;;;;;;;7.80;5.43;;;-0.40;99.90;;;;;;2039926;28;20191;-66
2023/12/02 02:58:52;;;;;;;8.87;4.90;;;-0.40;99.90;;;;;;2041614;28;20223;-67
2023/12/02 02:59:53;;;;;;;11.20;7.07;;;-0.30;99.90;;;;;;2042146;28;20214;-67
2023/12/02 03:00:54;;;;;;;10.60;5.17;;;-0.30;99.90;;;;;;2090811;28;20800;-66
2023/12/02 03:01:55;;;;;;;9.27;5.60;;;-0.30;99.90;;;;;;2082948;28;20212;-66
2023/12/02 03:02:55;;;;;;;10.57;5.87;;;-0.30;99.90;;;;;;2039868;28;20207;-66
2023/12/02 03:03:56;;;;;;;14.37;6.90;;;-0.30;99.90;;;;;;2058446;28;20262;-66
2023/12/02 03:04:58;;;;;;;11.30;5.93;;;-0.30;99.90;;;;;;2051909;28;20186;-66
2023/12/02 03:05:59;;;;;;;11.48;5.97;;;-0.30;99.90;;;;;;2046163;28;20247;-66
2023/12/02 03:07:00;;;;;;;11.88;6.35;;;-0.30;99.90;;;;;;2041346;28;20219;-66
2023/12/02 03:08:01;;;;;;;8.93;5.95;;;-0.20;99.90;;;;;;2041707;28;20271;-66
2023/12/02 03:09:01;;;;;;;9.47;5.63;;;-0.30;99.90;;;;;;2055039;28;20244;-66
2023/12/02 03:10:03;;;;;;;11.83;6.97;;;-0.30;99.90;;;;;;2040139;28;20188;-66
2023/12/02 03:11:03;;;;;;;11.93;6.75;;;-0.20;99.90;;;;;;2027156;28;20214;-66
2023/12/02 03:12:05;;;;;;;12.37;6.83;;;-0.10;99.90;;;;;;2035818;29;20196;-66
2023/12/02 03:13:05;;;;;;;11.70;7.65;;;-0.20;99.90;;;;;;2035045;28;20639;-66
2023/12/02 03:14:06;;;;;;;10.63;7.00;;;-0.20;99.90;;;;;;2040385;28;20211;-67
2023/12/02 03:15:08;;;;;;;11.57;6.05;;;-0.20;99.90;;;;;;2046312;28;20192;-66
2023/12/02 03:16:09;;;;;;;12.18;6.53;;;-0.10;99.90;;;;;;2054667;28;20238;-66
2023/12/02 03:17:10;;;;;;;13.48;6.50;;;-0.20;99.90;;;;;;2054140;28;20856;-67
2023/12/02 03:18:10;;;;;;;9.80;5.57;;;-0.20;99.90;;;;;;2044984;28;20280;-66
2023/12/02 03:19:11;;;;;;;10.17;6.07;;;-0.30;99.90;;;;;;2034331;28;20689;-66
2023/12/02 03:20:12;;;;;;;10.63;5.53;;;-0.30;99.90;;;;;;2041289;28;20232;-66
2023/12/02 03:21:12;;;;;;;11.70;6.27;;;-0.30;99.90;;;;;;2051561;28;20661;-66
2023/12/02 03:22:13;;;;;;;8.23;5.10;;;-0.40;99.90;;;;;;2053815;28;20724;-66
2023/12/02 03:23:15;;;;;;;7.95;5.13;;;-0.40;99.90;;;;;;2038674;28;20235;-66
2023/12/02 03:24:15;;;;;;;8.98;5.78;;;-0.50;99.90;;;;;;2033103;28;20235;-66
2023/12/02 03:25:17;;;;;;;7.43;4.73;;;-0.60;99.90;;;;;;2032635;28;20228;-66
2023/12/02 03:26:17;;;;;;;8.25;4.93;;;-0.60;99.90;;;;;;2037998;28;20658;-67
2023/12/02 03:27:18;;;;;;;8.80;4.43;;;-0.60;99.90;;;;;;2037253;28;20251;-66
2023/12/02 03:28:21;;;;;;;7.40;5.13;;;-0.60;99.90;;;;;;2039970;28;20279;-66
2023/12/02 03:29:22;;;;;;;7.32;5.15;;;-0.50;99.90;;;;;;2049622;28;21047;-66
2023/12/02 03:30:23;;;;;;;7.32;5.00;;;-0.50;99.90;;;;;;2040357;28;20678;-67
2023/12/02 03:31:23;;;;;;;7.97;4.70;;;-0.60;99.90;;;;;;2045612;28;20268;-67
2023/12/02 03:32:24;;;;;;;7.53;5.10;;;-0.60;99.90;;;;;;2053798;28;20765;-66
2023/12/02 03:33:25;;;;;;;8.13;4.73;;;-0.60;99.90;;;;;;2052765;28;20226;-66
2023/12/02 03:34:25;;;;;;;9.03;5.20;;;-0.70;99.90;;;;;;2079410;28;20710;-67
2023/12/02 03:35:26;;;;;;;8.93;5.13;;;-0.70;99.90;;;;;;2064502;28;20222;-66
2023/12/02 03:36:27;;;;;;;8.87;5.00;;;-0.70;99.90;;;;;;2036902;28;20251;-67
2023/12/02 03:37:27;;;;;;;7.73;5.13;;;-0.70;99.90;;;;;;2040224;28;20224;-66
2023/12/02 03:38:28;;;;;;;10.70;5.13;;;-0.70;99.90;;;;;;2041466;28;20694;-66
2023/12/02 03:39:29;;;;;;;7.13;4.37;;;-0.60;99.90;;;;;;2033574;29;20671;-66
2023/12/02 03:40:29;;;;;;;9.13;4.50;;;-0.60;99.90;;;;;;2041130;28;20281;-67
2023/12/02 03:41:30;;;;;;;11.47;6.90;;;-0.50;99.90;;;;;;2043951;28;20303;-66
2023/12/02 03:42:31;;;;;;;8.37;5.37;;;-0.60;99.90;;;;;;2041404;28;20220;-66
2023/12/02 03:43:32;;;;;;;9.83;5.43;;;-0.60;99.90;;;;;;2060922;28;20728;-66
2023/12/02 03:44:32;;;;;;;10.97;5.67;;;-0.60;99.90;;;;;;2063902;28;20230;-67
2023/12/02 03:45:33;;;;;;;10.43;6.37;;;-0.60;99.90;;;;;;2090307;28;20252;-66
2023/12/02 03:46:36;;;;;;;8.63;5.20;;;-0.60;99.90;;;;;;2083466;28;20365;-66
2023/12/02 03:47:37;;;;;;;10.27;5.45;;;-0.60;99.90;;;;;;2035584;29;20233;-67
2023/12/02 03:48:37;;;;;;;8.70;6.33;;;-0.60;99.90;;;;;;2037442;29;20221;-66
2023/12/02 03:49:38;;;;;;;9.57;5.90;;;-0.60;99.90;;;;;;2036562;29;20229;-67
2023/12/02 03:50:39;;;;;;;8.33;5.10;;;-0.50;99.90;;;;;;2031853;28;20593;-66
2023/12/02 03:51:39;;;;;;;9.00;5.10;;;-0.50;99.90;;;;;;2043155;28;20227;-66
2023/12/02 03:52:40;;;;;;;10.33;6.63;;;-0.50;99.90;;;;;;2044862;28;20748;-67
2023/12/02 03:53:41;;;;;;;10.07;6.03;;;-0.60;99.90;;;;;;2039064;28;20287;-66
2023/12/02 03:54:42;;;;;;;8.90;5.47;;;-0.70;99.90;;;;;;2044604;28;20224;-66
2023/12/02 03:55:42;;;;;;;11.50;5.63;;;-0.70;99.90;;;;;;2051733;28;20219;-66
2023/12/02 03:56:43;;;;;;;8.70;6.40;;;-0.70;99.90;;;;;;2090531;28;20239;-67
2023/12/02 03:57:45;;;;;;;8.60;5.28;;;-0.70;99.90;;;;;;2073848;28;20221;-66
2023/12/02 03:58:46;;;;;;;9.32;5.20;;;-0.80;99.90;;;;;;2029350;28;20240;-66
2023/12/02 03:59:46;;;;;;;9.45;5.57;;;-0.70;99.90;;;;;;2040211;29;20310;-66
2023/12/02 04:00:47;;;;;;;9.47;5.93;;;-0.70;99.90;;;;;;2042432;28;20223;-67
2023/12/02 04:01:48;;;;;;;9.53;5.23;;;-0.60;99.90;;;;;;2039959;28;20243;-67
2023/12/02 04:02:48;;;;;;;11.03;6.33;;;-0.60;99.90;;;;;;2036891;28;20205;-66
2023/12/02 04:03:49;;;;;;;10.67;6.00;;;-0.60;99.90;;;;;;2040619;29;20187;-66
2023/12/02 04:04:50;;;;;;;9.93;4.73;;;-0.60;99.90;;;;;;2083304;28;20300;-68
2023/12/02 04:05:50;;;;;;;9.73;6.30;;;-0.60;99.90;;;;;;2074824;28;20192;-67
2023/12/02 04:06:51;;;;;;;11.17;6.17;;;-0.60;99.90;;;;;;2033493;29;20650;-66
2023/12/02 04:07:52;;;;;;;10.67;6.47;;;-0.60;99.90;;;;;;2039321;28;20199;-67
2023/12/02 04:08:53;;;;;;;8.57;5.23;;;-0.50;99.90;;;;;;2052664;28;20195;-67
2023/12/02 04:09:53;;;;;;;10.00;5.47;;;-0.50;99.90;;;;;;2040728;28;20188;-67
2023/12/02 04:10:54;;;;;;;11.07;5.90;;;-0.40;99.90;;;;;;2036150;28;20220;-66
2023/12/02 04:11:55;;;;;;;10.13;5.67;;;-0.40;99.90;;;;;;2041333;28;20251;-67
2023/12/02 04:12:56;;;;;;;9.07;5.77;;;-0.40;99.90;;;;;;2037634;29;20556;-66
2023/12/02 04:13:56;;;;;;;8.53;4.87;;;-0.40;99.90;;;;;;2041197;28;20253;-69
2023/12/02 04:14:57;;;;;;;9.20;5.90;;;-0.30;99.90;;;;;;2051589;28;20604;-66
2023/12/02 04:15:58;;;;;;;7.07;4.78;;;-0.30;99.90;;;;;;2038817;28;20214;-67
2023/12/02 04:16:59;;;;;;;7.17;4.77;;;-0.30;99.90;;;;;;2024565;28;20216;-66
2023/12/02 04:18:00;;;;;;;10.90;6.30;;;-0.20;99.90;;;;;;2040677;29;20231;-66
2023/12/02 04:19:01;;;;;;;12.87;6.27;;;-0.20;99.90;;;;;;2040261;28;20180;-66
2023/12/02 04:20:08;;;;;;;10.82;5.88;;;-0.20;99.90;;;;;;2032519;28;20181;-66
2023/12/02 04:21:09;;;;;;;11.57;6.32;;;-0.30;99.90;;;;;;2033222;29;20272;-65
2023/12/02 04:22:10;;;;;;;11.67;6.27;;;-0.40;99.90;;;;;;2029814;29;20237;-66
2023/12/02 04:23:11;;;;;;;8.70;5.15;;;-0.50;99.90;;;;;;2029128;29;20649;-66
2023/12/02 04:24:12;;;;;;;8.70;5.43;;;-0.50;99.90;;;;;;2047193;28;20284;-67
2023/12/02 04:25:13;;;;;;;8.70;5.57;;;-0.40;99.90;;;;;;2049167;28;20796;-67
2023/12/02 04:26:13;;;;;;;12.60;5.93;;;-0.40;99.90;;;;;;2061143;28;20292;-67
2023/12/02 04:27:15;;;;;;;8.00;4.93;;;-0.30;99.90;;;;;;2041000;28;20730;-67
2023/12/02 04:28:16;;;;;;;10.90;5.30;;;-0.30;99.90;;;;;;2035388;28;20266;-67
2023/12/02 04:29:17;;;;;;;10.60;6.07;;;-0.20;99.90;;;;;;2040130;28;20239;-66
2023/12/02 04:30:18;;;;;;;8.73;4.83;;;-0.30;99.90;;;;;;2032232;28;20251;-66
2023/12/02 04:31:18;;;;;;;9.60;5.37;;;-0.20;99.90;;;;;;2033034;28;20230;-67
2023/12/02 04:32:19;;;;;;;14.53;7.10;;;-0.20;99.90;;;;;;2054756;28;20227;-66
2023/12/02 04:33:20;;;;;;;10.95;5.65;;;-0.20;99.90;;;;;;2053499;28;20231;-67
2023/12/02 04:34:21;;;;;;;10.63;5.97;;;-0.10;99.90;;;;;;2035026;28;20259;-66
2023/12/02 04:35:21;;;;;;;8.50;5.47;;;-0.20;99.90;;;;;;2029223;28;20249;-67
2023/12/02 04:36:22;;;;;;;9.13;5.83;;;-0.10;99.90;;;;;;2035678;29;20224;-66
2023/12/02 04:37:23;;;;;;;12.13;5.77;;;-0.10;99.90;;;;;;2049026;28;20243;-66
2023/12/02 04:38:23;;;;;;;10.03;5.33;;;-0.10;99.90;;;;;;2046851;28;20770;-67
2023/12/02 04:39:25;;;;;;;10.13;5.07;;;-0.10;99.90;;;;;;2043848;28;20259;-66
2023/12/02 04:40:26;;;;;;;7.97;4.95;;;-0.20;99.90;;;;;;2039448;28;20578;-67
2023/12/02 04:41:26;;;;;;;10.30;5.87;;;-0.10;99.90;;;;;;2042680;28;20246;-67
2023/12/02 04:42:27;;;;;;;12.33;6.47;;;-0.10;99.90;;;;;;2042805;28;20232;-67
2023/12/02 04:43:28;;;;;;;10.10;5.57;;;-0.20;99.90;;;;;;2035782;29;20220;-67
2023/12/02 04:44:28;;;;;;;9.67;5.60;;;-0.20;99.90;;;;;;2042295;28;20946;-67
2023/12/02 04:45:29;;;;;;;9.80;5.40;;;-0.20;99.90;;;;;;2042918;28;20232;-66
2023/12/02 04:46:30;;;;;;;10.37;7.13;;;-0.20;99.90;;;;;;2042858;29;20309;-66
2023/12/02 04:47:31;;;;;;;10.03;5.80;;;-0.20;99.90;;;;;;2030852;29;20228;-66
2023/12/02 04:48:33;;;;;;;10.27;6.35;;;-0.20;99.90;;;;;;2041583;28;20236;-66
2023/12/02 04:49:33;;;;;;;15.82;6.57;;;-0.30;99.90;;;;;;2035380;29;20667;-67
2023/12/02 04:50:34;;;;;;;10.10;6.13;;;-0.30;99.90;;;;;;2042657;28;20244;-66
2023/12/02 04:51:35;;;;;;;12.30;5.97;;;-0.30;99.90;;;;;;2036207;28;20350;-67
2023/12/02 04:52:35;;;;;;;14.23;6.87;;;-0.30;99.90;;;;;;2027268;28;20229;-67
2023/12/02 04:53:36;;;;;;;32.73;19.37;;;-0.30;99.90;;;;;;2034306;29;20730;-66
2023/12/02 04:54:37;;;;;;;35.30;11.53;;;-0.30;99.90;;;;;;2033412;29;20232;-67
2023/12/02 04:55:38;;;;;;;17.60;9.37;;;-0.40;99.90;;;;;;2042208;28;20270;-65
2023/12/02 04:56:38;;;;;;;12.20;6.27;;;-0.40;99.90;;;;;;2039073;28;20308;-67
2023/12/02 04:57:39;;;;;;;10.50;6.20;;;-0.40;99.90;;;;;;2038144;29;20224;-66
2023/12/02 04:58:40;;;;;;;12.77;6.53;;;-0.40;99.90;;;;;;2041322;28;20236;-66
2023/12/02 04:59:40;;;;;;;17.40;7.90;;;-0.40;99.90;;;;;;2042959;28;20231;-66
2023/12/02 05:00:41;;;;;;;15.53;8.60;;;-0.30;99.90;;;;;;2041061;28;20236;-66
2023/12/02 05:01:43;;;;;;;14.02;7.80;;;-0.40;99.90;;;;;;2056663;28;20268;-66
2023/12/02 05:02:44;;;;;;;11.02;6.05;;;-0.40;99.90;;;;;;2060450;28;20236;-66
2023/12/02 05:03:44;;;;;;;11.98;5.53;;;-0.50;99.90;;;;;;2037431;28;20770;-66
2023/12/02 05:04:46;;;;;;;9.37;5.63;;;-0.50;99.90;;;;;;2036997;28;20233;-66
2023/12/02 05:05:47;;;;;;;10.52;6.63;;;-0.50;99.90;;;;;;2042627;28;20301;-66
2023/12/02 05:06:51;;;;;;;10.52;5.53;;;-0.50;99.90;;;;;;2041456;28;20292;-67
2023/12/02 05:07:52;;;;;;;12.55;5.97;;;-0.50;99.90;;;;;;2038290;28;20612;-66
2023/12/02 05:08:52;;;;;;;10.97;5.90;;;-0.60;99.90;;;;;;2043204;29;20237;-67
2023/12/02 05:09:53;;;;;;;11.43;6.23;;;-0.60;99.90;;;;;;2039505;28;20192;-66
2023/12/02 05:10:54;;;;;;;8.57;5.07;;;-0.50;99.90;;;;;;2037253;28;20212;-66
2023/12/02 05:11:55;;;;;;;7.63;5.03;;;-0.60;99.90;;;;;;2042178;28;20665;-66
2023/12/02 05:12:56;;;;;;;9.45;5.28;;;-0.50;99.90;;;;;;2044510;28;20176;-66
2023/12/02 05:13:56;;;;;;;11.63;6.60;;;-0.60;99.90;;;;;;2044646;28;20227;-67
2023/12/02 05:14:57;;;;;;;8.10;5.13;;;-0.60;99.90;;;;;;2035369;28;20192;-66
2023/12/02 05:15:58;;;;;;;8.15;4.70;;;-0.60;99.90;;;;;;2035478;28;20200;-66
2023/12/02 05:16:59;;;;;;;8.50;5.40;;;-0.60;99.90;;;;;;2034464;28;20251;-66